sensor_id;sensor_type;location;lat;lon;timestamp;P1;durP1;ratioP1;P2;durP2;ratioP2
37379;SDS011;23252;-33.992;18.480;2022-12-18T00:01:19;48.85;;;7.07;;
37379;SDS011;23252;-33.992;18.480;2022-12-18T00:03:47;46.20;;;6.63;;
37379;SDS011;23252;-33.992;18.480;2022-12-18T00:06:15;41.83;;;6.57;;
37379;SDS011;23252;-33.992;18.480;2022-12-18T00:08:43;36.88;;;6.85;;
37379;SDS011;23252;-33.992;18.480;2022-12-18T00:11:11;36.17;;;6.07;;
37379;SDS011;23252;-33.992;18.480;2022-12-18T00:13:48;37.75;;;6.75;;
37379;SDS011;23252;-33.992;18.480;2022-12-18T00:16:17;40.50;;;5.90;;
37379;SDS011;23252;-33.992;18.480;2022-12-18T00:18:46;52.17;;;7.90;;
37379;SDS011;23252;-33.992;18.480;2022-12-18T00:21:14;33.53;;;6.10;;
37379;SDS011;23252;-33.992;18.480;2022-12-18T00:23:42;44.42;;;7.35;;
37379;SDS011;23252;-33.992;18.480;2022-12-18T00:29:10;37.70;;;5.60;;
37379;SDS011;23252;-33.992;18.480;2022-12-18T00:31:41;33.28;;;6.15;;
37379;SDS011;23252;-33.992;18.480;2022-12-18T00:34:10;36.88;;;5.93;;
37379;SDS011;23252;-33.992;18.480;2022-12-18T00:36:37;42.72;;;6.93;;
37379;SDS011;23252;-33.992;18.480;2022-12-18T00:39:04;34.63;;;5.95;;
37379;SDS011;23252;-33.992;18.480;2022-12-18T00:41:31;41.88;;;7.10;;
37379;SDS011;23252;-33.992;18.480;2022-12-18T00:44:17;38.38;;;6.47;;
37379;SDS011;23252;-33.992;18.480;2022-12-18T00:46:44;47.38;;;6.85;;
37379;SDS011;23252;-33.992;18.480;2022-12-18T00:49:12;35.70;;;6.30;;
37379;SDS011;23252;-33.992;18.480;2022-12-18T00:51:40;41.35;;;6.18;;
37379;SDS011;23252;-33.992;18.480;2022-12-18T00:54:06;39.33;;;6.07;;
37379;SDS011;23252;-33.992;18.480;2022-12-18T00:56:34;40.80;;;7.35;;
37379;SDS011;23252;-33.992;18.480;2022-12-18T00:59:02;36.97;;;5.57;;
37379;SDS011;23252;-33.992;18.480;2022-12-18T01:01:29;38.58;;;6.47;;
37379;SDS011;23252;-33.992;18.480;2022-12-18T01:04:00;41.03;;;7.20;;
37379;SDS011;23252;-33.992;18.480;2022-12-18T01:06:27;28.13;;;5.22;;
37379;SDS011;23252;-33.992;18.480;2022-12-18T01:08:55;32.30;;;6.45;;
37379;SDS011;23252;-33.992;18.480;2022-12-18T01:11:21;38.00;;;6.97;;
37379;SDS011;23252;-33.992;18.480;2022-12-18T01:13:48;37.08;;;5.93;;
37379;SDS011;23252;-33.992;18.480;2022-12-18T01:16:16;40.15;;;7.60;;
37379;SDS011;23252;-33.992;18.480;2022-12-18T01:18:43;56.97;;;9.07;;
37379;SDS011;23252;-33.992;18.480;2022-12-18T01:21:14;41.30;;;6.57;;
37379;SDS011;23252;-33.992;18.480;2022-12-18T01:23:44;34.25;;;6.15;;
37379;SDS011;23252;-33.992;18.480;2022-12-18T01:26:12;35.67;;;6.70;;
37379;SDS011;23252;-33.992;18.480;2022-12-18T01:28:40;38.33;;;7.22;;
37379;SDS011;23252;-33.992;18.480;2022-12-18T01:31:20;43.25;;;6.75;;
37379;SDS011;23252;-33.992;18.480;2022-12-18T01:33:49;38.08;;;6.20;;
37379;SDS011;23252;-33.992;18.480;2022-12-18T01:36:26;31.02;;;6.00;;
37379;SDS011;23252;-33.992;18.480;2022-12-18T01:38:55;37.17;;;6.50;;
37379;SDS011;23252;-33.992;18.480;2022-12-18T01:41:23;30.33;;;6.53;;
37379;SDS011;23252;-33.992;18.480;2022-12-18T01:46:25;36.75;;;7.10;;
37379;SDS011;23252;-33.992;18.480;2022-12-18T01:48:54;31.30;;;5.30;;
37379;SDS011;23252;-33.992;18.480;2022-12-18T01:51:26;41.50;;;7.72;;
37379;SDS011;23252;-33.992;18.480;2022-12-18T01:53:55;35.55;;;5.82;;
37379;SDS011;23252;-33.992;18.480;2022-12-18T01:56:22;35.33;;;5.38;;
37379;SDS011;23252;-33.992;18.480;2022-12-18T01:59:09;27.25;;;5.88;;
37379;SDS011;23252;-33.992;18.480;2022-12-18T02:01:37;33.97;;;5.85;;
37379;SDS011;23252;-33.992;18.480;2022-12-18T02:06:58;27.38;;;5.07;;
37379;SDS011;23252;-33.992;18.480;2022-12-18T02:10:04;25.98;;;4.68;;
37379;SDS011;23252;-33.992;18.480;2022-12-18T02:12:44;32.80;;;5.53;;
37379;SDS011;23252;-33.992;18.480;2022-12-18T02:15:17;24.23;;;4.13;;
37379;SDS011;23252;-33.992;18.480;2022-12-18T02:17:56;30.33;;;4.70;;
37379;SDS011;23252;-33.992;18.480;2022-12-18T02:28:36;25.73;;;4.13;;
37379;SDS011;23252;-33.992;18.480;2022-12-18T02:31:08;27.58;;;5.05;;
37379;SDS011;23252;-33.992;18.480;2022-12-18T02:33:39;26.85;;;4.20;;
37379;SDS011;23252;-33.992;18.480;2022-12-18T02:36:07;28.05;;;5.57;;
37379;SDS011;23252;-33.992;18.480;2022-12-18T02:38:36;32.05;;;5.22;;
37379;SDS011;23252;-33.992;18.480;2022-12-18T02:45:58;32.75;;;5.82;;
37379;SDS011;23252;-33.992;18.480;2022-12-18T02:48:29;30.17;;;5.50;;
37379;SDS011;23252;-33.992;18.480;2022-12-18T02:53:45;29.73;;;5.57;;
37379;SDS011;23252;-33.992;18.480;2022-12-18T02:56:20;30.67;;;5.47;;
37379;SDS011;23252;-33.992;18.480;2022-12-18T03:01:54;27.73;;;5.85;;
37379;SDS011;23252;-33.992;18.480;2022-12-18T03:07:34;29.52;;;5.32;;
37379;SDS011;23252;-33.992;18.480;2022-12-18T03:10:11;21.98;;;4.50;;
37379;SDS011;23252;-33.992;18.480;2022-12-18T03:13:24;28.35;;;4.88;;
37379;SDS011;23252;-33.992;18.480;2022-12-18T03:15:43;28.85;;;5.10;;
37379;SDS011;23252;-33.992;18.480;2022-12-18T03:18:18;21.63;;;4.70;;
37379;SDS011;23252;-33.992;18.480;2022-12-18T03:21:09;31.33;;;5.47;;
37379;SDS011;23252;-33.992;18.480;2022-12-18T03:23:40;26.45;;;5.22;;
37379;SDS011;23252;-33.992;18.480;2022-12-18T03:26:13;28.00;;;4.65;;
37379;SDS011;23252;-33.992;18.480;2022-12-18T03:28:56;25.92;;;5.13;;
37379;SDS011;23252;-33.992;18.480;2022-12-18T03:31:27;23.83;;;4.90;;
37379;SDS011;23252;-33.992;18.480;2022-12-18T03:34:04;24.30;;;4.97;;
37379;SDS011;23252;-33.992;18.480;2022-12-18T03:36:35;26.08;;;4.45;;
37379;SDS011;23252;-33.992;18.480;2022-12-18T03:39:01;26.17;;;5.88;;
37379;SDS011;23252;-33.992;18.480;2022-12-18T03:41:32;27.58;;;5.10;;
37379;SDS011;23252;-33.992;18.480;2022-12-18T03:49:34;27.58;;;5.20;;
37379;SDS011;23252;-33.992;18.480;2022-12-18T03:52:26;27.02;;;5.32;;
37379;SDS011;23252;-33.992;18.480;2022-12-18T03:55:14;30.17;;;6.05;;
37379;SDS011;23252;-33.992;18.480;2022-12-18T03:57:42;26.52;;;5.43;;
37379;SDS011;23252;-33.992;18.480;2022-12-18T04:00:12;29.85;;;5.57;;
37379;SDS011;23252;-33.992;18.480;2022-12-18T04:02:42;31.10;;;5.93;;
37379;SDS011;23252;-33.992;18.480;2022-12-18T04:05:11;27.13;;;4.97;;
37379;SDS011;23252;-33.992;18.480;2022-12-18T04:07:39;33.22;;;4.82;;
37379;SDS011;23252;-33.992;18.480;2022-12-18T04:10:07;29.08;;;5.28;;
37379;SDS011;23252;-33.992;18.480;2022-12-18T04:12:39;29.08;;;6.03;;
37379;SDS011;23252;-33.992;18.480;2022-12-18T04:15:06;29.02;;;4.72;;
37379;SDS011;23252;-33.992;18.480;2022-12-18T04:17:34;29.52;;;4.85;;
37379;SDS011;23252;-33.992;18.480;2022-12-18T04:20:00;21.95;;;4.68;;
37379;SDS011;23252;-33.992;18.480;2022-12-18T04:22:27;27.30;;;5.07;;
37379;SDS011;23252;-33.992;18.480;2022-12-18T04:24:53;32.85;;;5.15;;
37379;SDS011;23252;-33.992;18.480;2022-12-18T04:27:20;27.90;;;5.03;;
37379;SDS011;23252;-33.992;18.480;2022-12-18T04:29:46;30.40;;;4.72;;
37379;SDS011;23252;-33.992;18.480;2022-12-18T04:32:13;25.33;;;4.53;;
37379;SDS011;23252;-33.992;18.480;2022-12-18T04:34:39;23.10;;;5.32;;
37379;SDS011;23252;-33.992;18.480;2022-12-18T04:37:06;32.77;;;5.40;;
37379;SDS011;23252;-33.992;18.480;2022-12-18T04:39:33;26.65;;;4.35;;
37379;SDS011;23252;-33.992;18.480;2022-12-18T04:42:01;23.90;;;5.05;;
37379;SDS011;23252;-33.992;18.480;2022-12-18T04:44:27;26.33;;;4.80;;
37379;SDS011;23252;-33.992;18.480;2022-12-18T04:46:54;27.00;;;5.03;;
37379;SDS011;23252;-33.992;18.480;2022-12-18T04:49:21;26.63;;;4.97;;
37379;SDS011;23252;-33.992;18.480;2022-12-18T04:51:47;30.60;;;4.80;;
37379;SDS011;23252;-33.992;18.480;2022-12-18T04:54:18;33.17;;;5.18;;
37379;SDS011;23252;-33.992;18.480;2022-12-18T04:56:44;32.70;;;5.57;;
37379;SDS011;23252;-33.992;18.480;2022-12-18T05:01:38;29.00;;;4.80;;
37379;SDS011;23252;-33.992;18.480;2022-12-18T05:04:04;24.80;;;5.30;;
37379;SDS011;23252;-33.992;18.480;2022-12-18T05:06:34;37.25;;;5.32;;
37379;SDS011;23252;-33.992;18.480;2022-12-18T05:09:00;30.27;;;4.60;;
37379;SDS011;23252;-33.992;18.480;2022-12-18T05:11:27;30.70;;;5.10;;
37379;SDS011;23252;-33.992;18.480;2022-12-18T05:13:54;28.42;;;5.40;;
37379;SDS011;23252;-33.992;18.480;2022-12-18T05:16:20;31.30;;;5.45;;
37379;SDS011;23252;-33.992;18.480;2022-12-18T05:18:47;34.03;;;4.88;;
37379;SDS011;23252;-33.992;18.480;2022-12-18T05:21:13;34.43;;;5.43;;
37379;SDS011;23252;-33.992;18.480;2022-12-18T05:23:40;27.95;;;5.10;;
37379;SDS011;23252;-33.992;18.480;2022-12-18T05:26:07;27.02;;;5.05;;
37379;SDS011;23252;-33.992;18.480;2022-12-18T05:28:34;32.13;;;5.70;;
37379;SDS011;23252;-33.992;18.480;2022-12-18T05:31:02;33.83;;;7.03;;
37379;SDS011;23252;-33.992;18.480;2022-12-18T05:33:30;31.00;;;5.32;;
37379;SDS011;23252;-33.992;18.480;2022-12-18T05:35:59;30.80;;;5.82;;
37379;SDS011;23252;-33.992;18.480;2022-12-18T05:38:27;30.25;;;5.68;;
37379;SDS011;23252;-33.992;18.480;2022-12-18T05:40:55;30.55;;;6.07;;
37379;SDS011;23252;-33.992;18.480;2022-12-18T05:43:22;28.98;;;5.78;;
37379;SDS011;23252;-33.992;18.480;2022-12-18T05:45:52;35.03;;;5.68;;
37379;SDS011;23252;-33.992;18.480;2022-12-18T05:53:14;33.45;;;5.50;;
37379;SDS011;23252;-33.992;18.480;2022-12-18T05:55:42;32.80;;;5.88;;
37379;SDS011;23252;-33.992;18.480;2022-12-18T05:58:11;29.55;;;5.30;;
37379;SDS011;23252;-33.992;18.480;2022-12-18T06:00:39;37.58;;;6.38;;
37379;SDS011;23252;-33.992;18.480;2022-12-18T06:03:07;27.02;;;5.75;;
37379;SDS011;23252;-33.992;18.480;2022-12-18T06:05:38;30.20;;;5.45;;
37379;SDS011;23252;-33.992;18.480;2022-12-18T06:08:07;28.15;;;5.50;;
37379;SDS011;23252;-33.992;18.480;2022-12-18T06:10:34;33.55;;;5.30;;
37379;SDS011;23252;-33.992;18.480;2022-12-18T06:13:01;35.85;;;6.03;;
37379;SDS011;23252;-33.992;18.480;2022-12-18T06:15:27;37.45;;;5.97;;
37379;SDS011;23252;-33.992;18.480;2022-12-18T06:17:54;28.23;;;4.88;;
37379;SDS011;23252;-33.992;18.480;2022-12-18T06:20:20;29.50;;;5.13;;
37379;SDS011;23252;-33.992;18.480;2022-12-18T06:22:49;29.17;;;5.65;;
37379;SDS011;23252;-33.992;18.480;2022-12-18T06:25:16;30.05;;;6.07;;
37379;SDS011;23252;-33.992;18.480;2022-12-18T06:27:43;32.83;;;5.75;;
37379;SDS011;23252;-33.992;18.480;2022-12-18T06:30:09;29.92;;;6.25;;
37379;SDS011;23252;-33.992;18.480;2022-12-18T06:35:02;37.37;;;5.77;;
37379;SDS011;23252;-33.992;18.480;2022-12-18T06:37:30;25.38;;;4.97;;
37379;SDS011;23252;-33.992;18.480;2022-12-18T06:39:57;25.48;;;4.78;;
37379;SDS011;23252;-33.992;18.480;2022-12-18T06:42:23;30.58;;;5.40;;
37379;SDS011;23252;-33.992;18.480;2022-12-18T06:44:50;23.13;;;5.63;;
37379;SDS011;23252;-33.992;18.480;2022-12-18T06:47:20;36.10;;;6.15;;
37379;SDS011;23252;-33.992;18.480;2022-12-18T06:49:47;33.70;;;5.75;;
37379;SDS011;23252;-33.992;18.480;2022-12-18T06:52:13;28.27;;;6.07;;
37379;SDS011;23252;-33.992;18.480;2022-12-18T06:54:40;31.73;;;5.40;;
37379;SDS011;23252;-33.992;18.480;2022-12-18T06:57:06;30.38;;;5.65;;
37379;SDS011;23252;-33.992;18.480;2022-12-18T06:59:33;42.75;;;6.60;;
37379;SDS011;23252;-33.992;18.480;2022-12-18T07:01:59;31.95;;;5.20;;
37379;SDS011;23252;-33.992;18.480;2022-12-18T07:04:29;31.67;;;5.57;;
37379;SDS011;23252;-33.992;18.480;2022-12-18T07:06:56;30.15;;;6.22;;
37379;SDS011;23252;-33.992;18.480;2022-12-18T07:09:23;27.23;;;5.45;;
37379;SDS011;23252;-33.992;18.480;2022-12-18T07:11:49;27.05;;;6.10;;
37379;SDS011;23252;-33.992;18.480;2022-12-18T07:14:16;25.08;;;5.75;;
37379;SDS011;23252;-33.992;18.480;2022-12-18T07:16:43;27.60;;;5.90;;
37379;SDS011;23252;-33.992;18.480;2022-12-18T07:19:09;34.25;;;5.80;;
37379;SDS011;23252;-33.992;18.480;2022-12-18T07:21:36;33.10;;;6.03;;
37379;SDS011;23252;-33.992;18.480;2022-12-18T07:24:02;25.50;;;5.47;;
37379;SDS011;23252;-33.992;18.480;2022-12-18T07:26:29;29.23;;;5.45;;
37379;SDS011;23252;-33.992;18.480;2022-12-18T07:28:56;29.77;;;5.63;;
37379;SDS011;23252;-33.992;18.480;2022-12-18T07:31:23;30.17;;;5.90;;
37379;SDS011;23252;-33.992;18.480;2022-12-18T07:33:50;25.83;;;5.38;;
37379;SDS011;23252;-33.992;18.480;2022-12-18T07:36:17;30.05;;;5.85;;
37379;SDS011;23252;-33.992;18.480;2022-12-18T07:38:46;27.92;;;5.85;;
37379;SDS011;23252;-33.992;18.480;2022-12-18T07:41:13;31.85;;;6.20;;
37379;SDS011;23252;-33.992;18.480;2022-12-18T07:43:40;26.95;;;5.53;;
37379;SDS011;23252;-33.992;18.480;2022-12-18T07:46:09;27.25;;;4.22;;
37379;SDS011;23252;-33.992;18.480;2022-12-18T07:48:36;24.10;;;4.80;;
37379;SDS011;23252;-33.992;18.480;2022-12-18T07:51:04;25.23;;;5.03;;
37379;SDS011;23252;-33.992;18.480;2022-12-18T07:53:32;31.73;;;4.82;;
37379;SDS011;23252;-33.992;18.480;2022-12-18T07:56:01;21.67;;;4.97;;
37379;SDS011;23252;-33.992;18.480;2022-12-18T07:58:30;22.48;;;4.03;;
37379;SDS011;23252;-33.992;18.480;2022-12-18T08:01:04;25.35;;;4.53;;
37379;SDS011;23252;-33.992;18.480;2022-12-18T08:03:31;24.88;;;4.82;;
37379;SDS011;23252;-33.992;18.480;2022-12-18T08:06:08;21.98;;;5.07;;
37379;SDS011;23252;-33.992;18.480;2022-12-18T08:08:35;17.42;;;4.05;;
37379;SDS011;23252;-33.992;18.480;2022-12-18T08:11:02;20.80;;;4.78;;
37379;SDS011;23252;-33.992;18.480;2022-12-18T08:13:29;28.95;;;5.18;;
37379;SDS011;23252;-33.992;18.480;2022-12-18T08:15:59;25.50;;;4.80;;
37379;SDS011;23252;-33.992;18.480;2022-12-18T08:18:34;16.75;;;4.13;;
37379;SDS011;23252;-33.992;18.480;2022-12-18T08:21:08;20.55;;;4.68;;
37379;SDS011;23252;-33.992;18.480;2022-12-18T08:23:36;23.33;;;5.13;;
37379;SDS011;23252;-33.992;18.480;2022-12-18T08:28:29;22.23;;;4.65;;
37379;SDS011;23252;-33.992;18.480;2022-12-18T08:30:56;28.13;;;5.22;;
37379;SDS011;23252;-33.992;18.480;2022-12-18T08:33:22;32.33;;;5.38;;
37379;SDS011;23252;-33.992;18.480;2022-12-18T08:35:49;27.85;;;5.38;;
37379;SDS011;23252;-33.992;18.480;2022-12-18T08:38:15;32.72;;;5.13;;
37379;SDS011;23252;-33.992;18.480;2022-12-18T08:40:44;24.42;;;5.18;;
37379;SDS011;23252;-33.992;18.480;2022-12-18T08:43:11;22.20;;;4.43;;
37379;SDS011;23252;-33.992;18.480;2022-12-18T08:45:56;24.33;;;4.63;;
37379;SDS011;23252;-33.992;18.480;2022-12-18T08:48:22;24.23;;;4.93;;
37379;SDS011;23252;-33.992;18.480;2022-12-18T08:50:56;25.95;;;5.72;;
37379;SDS011;23252;-33.992;18.480;2022-12-18T08:53:26;27.10;;;5.07;;
37379;SDS011;23252;-33.992;18.480;2022-12-18T08:55:53;23.98;;;5.03;;
37379;SDS011;23252;-33.992;18.480;2022-12-18T08:58:21;25.48;;;5.30;;
37379;SDS011;23252;-33.992;18.480;2022-12-18T09:00:48;21.60;;;4.68;;
37379;SDS011;23252;-33.992;18.480;2022-12-18T09:03:15;25.02;;;4.88;;
37379;SDS011;23252;-33.992;18.480;2022-12-18T09:05:45;26.45;;;5.95;;
37379;SDS011;23252;-33.992;18.480;2022-12-18T09:08:12;36.03;;;6.25;;
37379;SDS011;23252;-33.992;18.480;2022-12-18T09:10:42;30.42;;;5.72;;
37379;SDS011;23252;-33.992;18.480;2022-12-18T09:13:10;28.35;;;5.18;;
37379;SDS011;23252;-33.992;18.480;2022-12-18T09:15:44;32.17;;;5.63;;
37379;SDS011;23252;-33.992;18.480;2022-12-18T09:18:13;24.45;;;4.47;;
37379;SDS011;23252;-33.992;18.480;2022-12-18T09:20:40;30.50;;;5.72;;
37379;SDS011;23252;-33.992;18.480;2022-12-18T09:23:07;24.80;;;5.55;;
37379;SDS011;23252;-33.992;18.480;2022-12-18T09:25:34;28.67;;;5.70;;
37379;SDS011;23252;-33.992;18.480;2022-12-18T09:30:29;29.48;;;5.20;;
37379;SDS011;23252;-33.992;18.480;2022-12-18T09:32:55;27.58;;;5.18;;
37379;SDS011;23252;-33.992;18.480;2022-12-18T09:35:22;28.25;;;4.82;;
37379;SDS011;23252;-33.992;18.480;2022-12-18T09:37:48;29.05;;;6.28;;
37379;SDS011;23252;-33.992;18.480;2022-12-18T09:40:19;23.80;;;4.93;;
37379;SDS011;23252;-33.992;18.480;2022-12-18T09:42:52;29.75;;;4.93;;
37379;SDS011;23252;-33.992;18.480;2022-12-18T09:45:23;23.00;;;5.22;;
37379;SDS011;23252;-33.992;18.480;2022-12-18T09:47:50;27.17;;;5.32;;
37379;SDS011;23252;-33.992;18.480;2022-12-18T09:52:56;33.10;;;5.57;;
37379;SDS011;23252;-33.992;18.480;2022-12-18T09:55:41;30.08;;;5.03;;
37379;SDS011;23252;-33.992;18.480;2022-12-18T10:00:55;31.25;;;4.95;;
37379;SDS011;23252;-33.992;18.480;2022-12-18T10:03:22;22.08;;;4.35;;
37379;SDS011;23252;-33.992;18.480;2022-12-18T10:11:31;26.80;;;4.50;;
37379;SDS011;23252;-33.992;18.480;2022-12-18T10:14:23;19.02;;;4.68;;
37379;SDS011;23252;-33.992;18.480;2022-12-18T10:16:57;24.13;;;4.35;;
37379;SDS011;23252;-33.992;18.480;2022-12-18T10:22:34;31.92;;;5.07;;
37379;SDS011;23252;-33.992;18.480;2022-12-18T10:25:12;32.20;;;5.70;;
37379;SDS011;23252;-33.992;18.480;2022-12-18T10:27:41;26.67;;;5.13;;
37379;SDS011;23252;-33.992;18.480;2022-12-18T10:30:12;31.02;;;6.03;;
37379;SDS011;23252;-33.992;18.480;2022-12-18T10:32:40;27.08;;;4.78;;
37379;SDS011;23252;-33.992;18.480;2022-12-18T10:35:09;34.47;;;6.10;;
37379;SDS011;23252;-33.992;18.480;2022-12-18T10:40:52;25.23;;;4.43;;
37379;SDS011;23252;-33.992;18.480;2022-12-18T10:43:26;22.98;;;5.22;;
37379;SDS011;23252;-33.992;18.480;2022-12-18T10:46:11;28.88;;;5.63;;
37379;SDS011;23252;-33.992;18.480;2022-12-18T10:51:26;23.33;;;4.88;;
37379;SDS011;23252;-33.992;18.480;2022-12-18T10:56:27;26.95;;;5.00;;
37379;SDS011;23252;-33.992;18.480;2022-12-18T10:58:57;23.52;;;4.88;;
37379;SDS011;23252;-33.992;18.480;2022-12-18T11:01:51;22.35;;;5.35;;
37379;SDS011;23252;-33.992;18.480;2022-12-18T11:04:18;22.13;;;4.50;;
37379;SDS011;23252;-33.992;18.480;2022-12-18T11:07:00;18.88;;;3.83;;
37379;SDS011;23252;-33.992;18.480;2022-12-18T11:09:30;22.88;;;5.32;;
37379;SDS011;23252;-33.992;18.480;2022-12-18T11:11:59;22.15;;;5.03;;
37379;SDS011;23252;-33.992;18.480;2022-12-18T11:14:50;30.80;;;4.78;;
37379;SDS011;23252;-33.992;18.480;2022-12-18T11:17:21;20.58;;;4.60;;
37379;SDS011;23252;-33.992;18.480;2022-12-18T11:19:52;25.33;;;4.80;;
37379;SDS011;23252;-33.992;18.480;2022-12-18T11:22:27;22.92;;;5.15;;
37379;SDS011;23252;-33.992;18.480;2022-12-18T11:24:59;25.58;;;5.13;;
37379;SDS011;23252;-33.992;18.480;2022-12-18T11:27:31;29.30;;;4.78;;
37379;SDS011;23252;-33.992;18.480;2022-12-18T11:30:08;23.60;;;4.53;;
37379;SDS011;23252;-33.992;18.480;2022-12-18T11:32:49;20.65;;;4.13;;
37379;SDS011;23252;-33.992;18.480;2022-12-18T11:43:52;22.17;;;4.30;;
37379;SDS011;23252;-33.992;18.480;2022-12-18T11:46:29;23.13;;;4.90;;
37379;SDS011;23252;-33.992;18.480;2022-12-18T11:51:55;25.08;;;4.20;;
37379;SDS011;23252;-33.992;18.480;2022-12-18T11:54:30;28.77;;;5.63;;
37379;SDS011;23252;-33.992;18.480;2022-12-18T11:56:58;21.10;;;4.22;;
37379;SDS011;23252;-33.992;18.480;2022-12-18T11:59:35;24.40;;;4.28;;
37379;SDS011;23252;-33.992;18.480;2022-12-18T12:02:11;20.45;;;4.43;;
37379;SDS011;23252;-33.992;18.480;2022-12-18T12:08:07;22.63;;;4.40;;
37379;SDS011;23252;-33.992;18.480;2022-12-18T12:16:04;20.23;;;4.28;;
37379;SDS011;23252;-33.992;18.480;2022-12-18T12:24:29;23.90;;;4.45;;
37379;SDS011;23252;-33.992;18.480;2022-12-18T12:27:07;19.92;;;4.05;;
37379;SDS011;23252;-33.992;18.480;2022-12-18T12:38:04;22.23;;;5.03;;
37379;SDS011;23252;-33.992;18.480;2022-12-18T12:40:34;19.98;;;4.18;;
37379;SDS011;23252;-33.992;18.480;2022-12-18T12:45:58;22.35;;;4.68;;
37379;SDS011;23252;-33.992;18.480;2022-12-18T12:48:35;20.60;;;4.30;;
37379;SDS011;23252;-33.992;18.480;2022-12-18T12:51:22;23.70;;;4.40;;
37379;SDS011;23252;-33.992;18.480;2022-12-18T12:53:56;21.38;;;4.07;;
37379;SDS011;23252;-33.992;18.480;2022-12-18T12:56:25;27.00;;;5.55;;
37379;SDS011;23252;-33.992;18.480;2022-12-18T12:59:04;21.95;;;4.63;;
37379;SDS011;23252;-33.992;18.480;2022-12-18T13:06:45;27.23;;;4.25;;
37379;SDS011;23252;-33.992;18.480;2022-12-18T13:09:32;18.45;;;3.92;;
37379;SDS011;23252;-33.992;18.480;2022-12-18T13:12:04;20.77;;;4.05;;
37379;SDS011;23252;-33.992;18.480;2022-12-18T13:14:55;18.95;;;4.35;;
37379;SDS011;23252;-33.992;18.480;2022-12-18T13:17:48;16.55;;;3.60;;
37379;SDS011;23252;-33.992;18.480;2022-12-18T13:20:15;24.45;;;4.40;;
37379;SDS011;23252;-33.992;18.480;2022-12-18T13:22:43;20.52;;;4.60;;
37379;SDS011;23252;-33.992;18.480;2022-12-18T13:25:34;19.88;;;4.38;;
37379;SDS011;23252;-33.992;18.480;2022-12-18T13:30:47;17.10;;;4.30;;
37379;SDS011;23252;-33.992;18.480;2022-12-18T13:36:08;22.65;;;4.25;;
37379;SDS011;23252;-33.992;18.480;2022-12-18T13:38:48;17.65;;;3.58;;
37379;SDS011;23252;-33.992;18.480;2022-12-18T13:41:35;16.15;;;3.38;;
37379;SDS011;23252;-33.992;18.480;2022-12-18T13:44:12;17.02;;;3.40;;
37379;SDS011;23252;-33.992;18.480;2022-12-18T13:46:51;16.30;;;2.92;;
37379;SDS011;23252;-33.992;18.480;2022-12-18T13:52:15;16.88;;;3.42;;
37379;SDS011;23252;-33.992;18.480;2022-12-18T13:54:51;21.10;;;3.92;;
37379;SDS011;23252;-33.992;18.480;2022-12-18T13:57:27;24.30;;;4.55;;
37379;SDS011;23252;-33.992;18.480;2022-12-18T14:02:46;19.25;;;3.92;;
37379;SDS011;23252;-33.992;18.480;2022-12-18T14:07:58;22.77;;;4.57;;
37379;SDS011;23252;-33.992;18.480;2022-12-18T14:10:28;20.08;;;4.30;;
37379;SDS011;23252;-33.992;18.480;2022-12-18T14:12:54;14.60;;;3.75;;
37379;SDS011;23252;-33.992;18.480;2022-12-18T14:15:31;18.30;;;3.35;;
37379;SDS011;23252;-33.992;18.480;2022-12-18T14:20:49;17.10;;;3.08;;
37379;SDS011;23252;-33.992;18.480;2022-12-18T14:23:51;19.55;;;3.55;;
37379;SDS011;23252;-33.992;18.480;2022-12-18T14:26:27;17.52;;;3.75;;
37379;SDS011;23252;-33.992;18.480;2022-12-18T14:28:56;17.23;;;3.42;;
37379;SDS011;23252;-33.992;18.480;2022-12-18T14:31:27;23.25;;;4.40;;
37379;SDS011;23252;-33.992;18.480;2022-12-18T14:33:55;20.27;;;4.43;;
37379;SDS011;23252;-33.992;18.480;2022-12-18T14:36:26;20.63;;;4.07;;
37379;SDS011;23252;-33.992;18.480;2022-12-18T14:38:55;19.52;;;3.63;;
37379;SDS011;23252;-33.992;18.480;2022-12-18T14:41:23;21.77;;;4.53;;
37379;SDS011;23252;-33.992;18.480;2022-12-18T14:43:51;15.30;;;3.75;;
37379;SDS011;23252;-33.992;18.480;2022-12-18T14:46:38;16.85;;;3.50;;
37379;SDS011;23252;-33.992;18.480;2022-12-18T14:49:18;17.80;;;3.45;;
37379;SDS011;23252;-33.992;18.480;2022-12-18T14:51:53;18.08;;;3.85;;
37379;SDS011;23252;-33.992;18.480;2022-12-18T14:54:30;21.25;;;3.78;;
37379;SDS011;23252;-33.992;18.480;2022-12-18T14:57:00;16.83;;;3.58;;
37379;SDS011;23252;-33.992;18.480;2022-12-18T14:59:30;18.25;;;3.97;;
37379;SDS011;23252;-33.992;18.480;2022-12-18T15:04:34;21.30;;;4.13;;
37379;SDS011;23252;-33.992;18.480;2022-12-18T15:07:14;20.17;;;3.92;;
37379;SDS011;23252;-33.992;18.480;2022-12-18T15:09:44;24.88;;;3.53;;
37379;SDS011;23252;-33.992;18.480;2022-12-18T15:12:28;21.00;;;3.88;;
37379;SDS011;23252;-33.992;18.480;2022-12-18T15:15:00;17.23;;;3.60;;
37379;SDS011;23252;-33.992;18.480;2022-12-18T15:17:36;24.75;;;4.72;;
37379;SDS011;23252;-33.992;18.480;2022-12-18T15:20:09;21.27;;;4.47;;
37379;SDS011;23252;-33.992;18.480;2022-12-18T15:22:36;21.42;;;3.75;;
37379;SDS011;23252;-33.992;18.480;2022-12-18T15:25:21;19.25;;;3.67;;
37379;SDS011;23252;-33.992;18.480;2022-12-18T15:27:57;24.10;;;4.22;;
37379;SDS011;23252;-33.992;18.480;2022-12-18T15:30:24;20.50;;;4.13;;
37379;SDS011;23252;-33.992;18.480;2022-12-18T15:32:51;23.45;;;4.25;;
37379;SDS011;23252;-33.992;18.480;2022-12-18T15:35:38;22.95;;;4.38;;
37379;SDS011;23252;-33.992;18.480;2022-12-18T15:38:04;21.27;;;4.15;;
37379;SDS011;23252;-33.992;18.480;2022-12-18T15:40:32;21.88;;;3.83;;
37379;SDS011;23252;-33.992;18.480;2022-12-18T15:42:59;20.33;;;4.20;;
37379;SDS011;23252;-33.992;18.480;2022-12-18T15:45:44;20.40;;;4.22;;
37379;SDS011;23252;-33.992;18.480;2022-12-18T15:48:23;26.15;;;4.22;;
37379;SDS011;23252;-33.992;18.480;2022-12-18T15:50:52;26.02;;;4.28;;
37379;SDS011;23252;-33.992;18.480;2022-12-18T15:53:22;16.90;;;3.67;;
37379;SDS011;23252;-33.992;18.480;2022-12-18T15:55:50;25.60;;;4.45;;
37379;SDS011;23252;-33.992;18.480;2022-12-18T15:58:34;19.50;;;4.43;;
37379;SDS011;23252;-33.992;18.480;2022-12-18T16:01:01;22.02;;;4.35;;
37379;SDS011;23252;-33.992;18.480;2022-12-18T16:05:54;19.17;;;3.60;;
37379;SDS011;23252;-33.992;18.480;2022-12-18T16:08:21;19.70;;;4.30;;
37379;SDS011;23252;-33.992;18.480;2022-12-18T16:10:50;19.75;;;4.03;;
37379;SDS011;23252;-33.992;18.480;2022-12-18T16:13:20;19.50;;;3.95;;
37379;SDS011;23252;-33.992;18.480;2022-12-18T16:15:46;24.25;;;4.20;;
37379;SDS011;23252;-33.992;18.480;2022-12-18T16:18:13;23.65;;;4.20;;
37379;SDS011;23252;-33.992;18.480;2022-12-18T16:20:40;20.30;;;4.22;;
37379;SDS011;23252;-33.992;18.480;2022-12-18T16:23:09;20.23;;;3.67;;
37379;SDS011;23252;-33.992;18.480;2022-12-18T16:25:36;23.92;;;4.97;;
37379;SDS011;23252;-33.992;18.480;2022-12-18T16:28:03;17.45;;;4.00;;
37379;SDS011;23252;-33.992;18.480;2022-12-18T16:30:30;19.00;;;3.58;;
37379;SDS011;23252;-33.992;18.480;2022-12-18T16:32:57;18.63;;;4.25;;
37379;SDS011;23252;-33.992;18.480;2022-12-18T16:40:17;25.08;;;4.78;;
37379;SDS011;23252;-33.992;18.480;2022-12-18T16:45:12;27.85;;;4.75;;
37379;SDS011;23252;-33.992;18.480;2022-12-18T16:47:41;20.02;;;4.53;;
37379;SDS011;23252;-33.992;18.480;2022-12-18T16:50:08;28.30;;;4.10;;
37379;SDS011;23252;-33.992;18.480;2022-12-18T16:52:35;26.25;;;4.22;;
37379;SDS011;23252;-33.992;18.480;2022-12-18T16:57:29;19.52;;;4.47;;